Time;durP1;ratioP1;P1;durP2;ratioP2;P2;SDS_P1;SDS_P2;PMS_P1;PMS_P2;Temp;Humidity;BMP_temperature;BMP_pressure;BME280_temperature;BME280_humidity;BME280_pressure;Samples;Min_cycle;Max_cycle;Signal;HPM_P1;HPM_P2
2022/07/22 00:01:44;;;;;;;13.70;4.82;;;16.30;99.90;;;;;;5053528;28;20048;-74
2022/07/22 00:04:11;;;;;;;11.13;4.32;;;16.30;99.90;;;;;;5053577;28;20049;-74
2022/07/22 00:06:38;;;;;;;13.27;4.85;;;16.30;99.90;;;;;;5054825;28;20102;-73
2022/07/22 00:09:05;;;;;;;8.50;3.85;;;16.20;99.90;;;;;;5053408;28;20428;-73
2022/07/22 00:11:32;;;;;;;12.45;4.00;;;16.20;99.90;;;;;;5054282;28;20049;-74
2022/07/22 00:13:59;;;;;;;10.25;4.45;;;16.20;99.90;;;;;;5053489;28;20060;-74
2022/07/22 00:16:26;;;;;;;9.32;3.13;;;16.20;99.90;;;;;;5055784;28;20045;-73
2022/07/22 00:18:54;;;;;;;12.77;4.40;;;16.20;99.90;;;;;;5053054;28;20558;-75
2022/07/22 00:21:21;;;;;;;9.60;3.42;;;16.30;99.90;;;;;;5052652;28;20099;-74
2022/07/22 00:23:48;;;;;;;10.80;3.38;;;16.30;99.90;;;;;;5054338;28;20052;-75
2022/07/22 00:26:15;;;;;;;11.38;3.30;;;16.30;99.90;;;;;;5054813;28;20480;-74
2022/07/22 00:28:42;;;;;;;7.40;2.90;;;16.30;99.90;;;;;;5053031;28;20098;-74
2022/07/22 00:31:09;;;;;;;22.40;3.95;;;16.30;99.90;;;;;;5053505;28;20060;-75
2022/07/22 00:33:35;;;;;;;8.57;3.15;;;16.30;99.90;;;;;;5054335;28;20056;-74
2022/07/22 00:36:06;;;;;;;9.90;2.95;;;16.40;99.90;;;;;;5053827;28;20098;-73
2022/07/22 00:38:33;;;;;;;9.13;2.40;;;16.40;99.90;;;;;;5053126;28;20052;-74
2022/07/22 00:41:00;;;;;;;7.82;2.50;;;16.30;99.90;;;;;;5053281;28;20049;-74
2022/07/22 00:43:27;;;;;;;10.40;2.55;;;16.30;99.90;;;;;;5054025;28;20052;-74
2022/07/22 00:45:54;;;;;;;6.95;2.50;;;16.30;99.90;;;;;;5053275;28;20084;-74
2022/07/22 00:48:20;;;;;;;11.63;3.05;;;16.30;99.90;;;;;;5052662;28;20115;-74
2022/07/22 00:50:47;;;;;;;9.65;2.55;;;16.30;99.90;;;;;;5051814;28;20110;-73
2022/07/22 00:53:16;;;;;;;7.45;2.60;;;16.30;99.90;;;;;;5052798;28;20100;-74
2022/07/22 00:55:43;;;;;;;9.50;2.50;;;16.40;99.90;;;;;;5053077;28;20045;-73
2022/07/22 00:58:10;;;;;;;8.88;2.53;;;16.30;99.90;;;;;;5052536;28;20049;-75
2022/07/22 01:00:37;;;;;;;11.38;2.78;;;16.30;99.90;;;;;;5053286;28;20041;-74
2022/07/22 01:03:04;;;;;;;12.20;3.28;;;16.30;99.90;;;;;;5051978;28;20102;-73
2022/07/22 01:05:31;;;;;;;7.03;2.50;;;16.20;99.90;;;;;;5052273;28;20049;-74
2022/07/22 01:07:58;;;;;;;10.15;2.35;;;16.20;99.90;;;;;;5053713;28;20049;-73
2022/07/22 01:10:26;;;;;;;9.07;3.10;;;16.20;99.90;;;;;;5052797;28;20053;-74
2022/07/22 01:12:53;;;;;;;8.05;2.58;;;16.10;99.90;;;;;;5052503;28;20116;-74
2022/07/22 01:15:20;;;;;;;6.38;2.58;;;16.10;99.90;;;;;;5052710;28;20056;-74
2022/07/22 01:17:46;;;;;;;12.00;2.60;;;16.10;99.90;;;;;;5052307;28;20098;-74
2022/07/22 01:20:15;;;;;;;8.50;2.10;;;16.10;99.90;;;;;;5052424;28;20052;-74
2022/07/22 01:22:42;;;;;;;7.57;2.40;;;16.10;99.90;;;;;;5052088;28;20098;-73
2022/07/22 01:25:09;;;;;;;9.98;2.42;;;16.10;99.90;;;;;;5053224;28;20137;-74
2022/07/22 01:27:36;;;;;;;7.50;2.30;;;16.20;99.90;;;;;;5052516;28;20057;-74
2022/07/22 01:30:04;;;;;;;5.10;2.22;;;16.20;99.90;;;;;;5052199;28;20135;-74
2022/07/22 01:32:31;;;;;;;9.38;2.22;;;16.20;99.90;;;;;;5053147;28;20094;-74
2022/07/22 01:34:58;;;;;;;6.47;2.47;;;16.20;99.90;;;;;;5052753;28;20358;-73
2022/07/22 01:37:26;;;;;;;6.68;2.00;;;16.20;99.90;;;;;;5054100;28;20073;-72
2022/07/22 01:39:53;;;;;;;7.47;2.20;;;16.20;99.90;;;;;;5053503;28;20056;-73
2022/07/22 01:42:20;;;;;;;7.50;2.10;;;16.30;99.90;;;;;;5053947;28;20049;-74
2022/07/22 01:44:47;;;;;;;5.05;2.30;;;16.20;99.90;;;;;;5057929;28;20057;-73
2022/07/22 01:47:14;;;;;;;10.40;2.50;;;16.20;99.90;;;;;;5057467;28;20451;-74
2022/07/22 01:49:40;;;;;;;8.18;2.20;;;16.20;99.90;;;;;;5057904;28;20052;-73
2022/07/22 01:52:08;;;;;;;4.60;1.90;;;16.20;99.90;;;;;;5056890;28;20485;-74
2022/07/22 01:54:36;;;;;;;7.50;2.15;;;16.20;99.90;;;;;;5058035;28;20053;-74
2022/07/22 01:57:03;;;;;;;6.63;3.17;;;16.20;99.90;;;;;;5058449;28;20120;-74
2022/07/22 01:59:30;;;;;;;11.20;2.35;;;16.20;99.90;;;;;;5056228;28;20057;-73
2022/07/22 02:01:57;;;;;;;15.35;2.47;;;16.20;99.90;;;;;;5058080;28;20485;-75
2022/07/22 02:04:24;;;;;;;9.30;2.00;;;16.20;99.90;;;;;;5057973;28;20512;-74
2022/07/22 02:06:51;;;;;;;6.55;2.60;;;16.20;99.90;;;;;;5056928;28;20057;-74
2022/07/22 02:09:18;;;;;;;8.05;2.08;;;16.10;99.90;;;;;;5056208;28;20061;-74
2022/07/22 02:11:46;;;;;;;11.00;2.28;;;16.10;99.90;;;;;;5056008;28;20508;-74
2022/07/22 02:14:13;;;;;;;7.70;2.08;;;16.10;99.90;;;;;;5056058;28;20394;-74
2022/07/22 02:16:40;;;;;;;7.03;2.33;;;16.10;99.90;;;;;;5058390;28;20075;-74
2022/07/22 02:19:07;;;;;;;5.43;2.13;;;16.10;99.90;;;;;;5057026;28;20520;-74
2022/07/22 02:21:34;;;;;;;12.50;2.25;;;16.10;99.90;;;;;;5068121;28;20041;-74
2022/07/22 02:24:00;;;;;;;7.35;2.40;;;16.10;99.90;;;;;;5060166;28;20045;-74
2022/07/22 02:26:27;;;;;;;6.30;2.25;;;16.00;99.90;;;;;;5058822;28;20096;-73
2022/07/22 02:28:56;;;;;;;7.57;2.17;;;16.00;99.90;;;;;;5058036;28;20049;-73
2022/07/22 02:31:23;;;;;;;6.95;2.00;;;16.00;99.90;;;;;;5062792;28;20048;-74
2022/07/22 02:33:50;;;;;;;8.30;1.98;;;16.00;99.90;;;;;;5064083;28;20049;-73
2022/07/22 02:36:17;;;;;;;6.85;2.03;;;16.00;99.90;;;;;;5056849;28;20045;-72
2022/07/22 02:38:44;;;;;;;4.13;1.80;;;16.00;99.90;;;;;;5055651;28;20057;-73
2022/07/22 02:41:11;;;;;;;4.43;1.83;;;16.00;99.90;;;;;;5054234;28;20045;-75
2022/07/22 02:43:38;;;;;;;8.55;2.03;;;16.00;99.90;;;;;;5055457;28;20052;-73
2022/07/22 02:46:06;;;;;;;4.68;1.98;;;16.00;99.90;;;;;;5055542;28;20049;-74
2022/07/22 02:48:33;;;;;;;4.97;1.80;;;16.00;99.90;;;;;;5055767;28;20045;-74
2022/07/22 02:51:00;;;;;;;5.70;1.80;;;15.90;99.90;;;;;;5058754;28;20053;-73
2022/07/22 02:53:27;;;;;;;3.55;2.00;;;15.90;99.90;;;;;;5055122;28;20041;-73
2022/07/22 02:55:54;;;;;;;3.55;1.60;;;15.90;99.90;;;;;;5053102;28;20496;-74
2022/07/22 02:58:21;;;;;;;4.22;1.73;;;15.90;99.90;;;;;;5054450;28;20382;-73
2022/07/22 03:00:48;;;;;;;9.77;1.95;;;15.90;99.90;;;;;;5055300;28;20488;-74
2022/07/22 03:03:16;;;;;;;2.97;1.40;;;15.90;99.90;;;;;;5054052;28;20059;-75
2022/07/22 03:05:43;;;;;;;8.00;1.65;;;15.90;99.90;;;;;;5055614;28;20057;-74
2022/07/22 03:08:11;;;;;;;6.85;1.83;;;15.90;99.90;;;;;;5054064;28;20061;-73
2022/07/22 03:10:38;;;;;;;4.85;1.95;;;15.90;99.90;;;;;;5054870;28;20056;-74
2022/07/22 03:13:05;;;;;;;4.53;2.10;;;15.90;99.90;;;;;;5054442;28;20087;-74
2022/07/22 03:15:32;;;;;;;8.10;1.77;;;15.90;99.90;;;;;;5055382;28;20508;-74
2022/07/22 03:17:58;;;;;;;8.02;1.98;;;15.90;99.90;;;;;;5054180;28;20075;-74
2022/07/22 03:20:27;;;;;;;5.03;1.90;;;15.90;99.90;;;;;;5054238;28;20052;-74
2022/07/22 03:22:54;;;;;;;7.63;2.17;;;16.00;99.90;;;;;;5053805;28;20187;-75
2022/07/22 03:25:21;;;;;;;5.85;1.70;;;16.00;99.90;;;;;;5053416;28;20049;-74
2022/07/22 03:27:48;;;;;;;5.38;2.13;;;16.00;99.90;;;;;;5055858;28;20061;-74
2022/07/22 03:30:15;;;;;;;5.82;1.90;;;16.00;99.90;;;;;;5053792;28;20052;-75
2022/07/22 03:32:44;;;;;;;5.60;1.75;;;16.00;99.90;;;;;;5055012;28;20099;-74
2022/07/22 03:35:11;;;;;;;4.97;1.90;;;16.00;99.90;;;;;;5055132;28;20048;-74
2022/07/22 03:37:39;;;;;;;6.53;1.90;;;16.00;99.90;;;;;;5054562;28;20049;-74
2022/07/22 03:40:07;;;;;;;3.45;1.80;;;16.00;99.90;;;;;;5054842;28;20052;-74
2022/07/22 03:42:34;;;;;;;4.97;2.42;;;16.00;99.90;;;;;;5055235;28;20048;-74
2022/07/22 03:45:01;;;;;;;9.00;2.58;;;16.00;99.90;;;;;;5052981;28;20145;-74
2022/07/22 03:47:28;;;;;;;6.40;2.25;;;16.00;99.90;;;;;;5053122;28;20056;-74
2022/07/22 03:49:55;;;;;;;5.43;2.33;;;16.00;99.90;;;;;;5053546;28;20056;-74
2022/07/22 03:52:21;;;;;;;5.13;2.03;;;15.90;99.90;;;;;;5053794;28;20048;-75
2022/07/22 03:54:50;;;;;;;7.28;1.67;;;15.90;99.90;;;;;;5053593;28;20056;-74
2022/07/22 03:57:17;;;;;;;3.63;1.70;;;15.90;99.90;;;;;;5054066;28;20057;-74
2022/07/22 03:59:43;;;;;;;5.13;2.28;;;15.90;99.90;;;;;;5054101;28;20052;-74
2022/07/22 04:02:10;;;;;;;6.93;2.10;;;15.90;99.90;;;;;;5054133;28;20056;-74
2022/07/22 04:04:37;;;;;;;6.55;1.70;;;15.90;99.90;;;;;;5053502;28;20559;-74
2022/07/22 04:07:04;;;;;;;7.43;2.03;;;15.90;99.90;;;;;;5054035;28;20057;-74
2022/07/22 04:09:31;;;;;;;6.93;1.92;;;16.00;99.90;;;;;;5054359;28;20123;-74
2022/07/22 04:11:59;;;;;;;5.90;1.60;;;15.90;99.90;;;;;;5054121;28;20102;-74
2022/07/22 04:14:26;;;;;;;6.63;2.22;;;15.90;99.90;;;;;;5052983;28;20456;-74
2022/07/22 04:16:53;;;;;;;10.88;2.63;;;16.00;99.90;;;;;;5054197;28;20053;-74
2022/07/22 04:19:20;;;;;;;7.15;2.00;;;16.00;99.90;;;;;;5052952;28;20049;-74
2022/07/22 04:21:47;;;;;;;6.22;2.05;;;16.00;99.90;;;;;;5052543;28;20413;-74
2022/07/22 04:24:14;;;;;;;7.72;1.88;;;16.00;99.90;;;;;;5053118;28;20056;-74
2022/07/22 04:26:40;;;;;;;5.70;1.92;;;16.00;99.90;;;;;;5052344;28;20053;-74
2022/07/22 04:29:09;;;;;;;7.32;2.10;;;16.00;99.90;;;;;;5052846;28;20061;-74
2022/07/22 04:31:35;;;;;;;5.55;2.13;;;16.10;99.90;;;;;;5053455;28;20094;-74
2022/07/22 04:34:02;;;;;;;4.78;1.75;;;16.10;99.90;;;;;;5053422;28;20049;-76
2022/07/22 04:36:29;;;;;;;9.65;2.13;;;16.10;99.90;;;;;;5054312;28;20045;-75
2022/07/22 04:38:56;;;;;;;10.23;2.10;;;16.10;99.90;;;;;;5053358;28;20052;-74
2022/07/22 04:41:23;;;;;;;7.85;2.00;;;16.20;99.90;;;;;;5037550;28;20136;-73
2022/07/22 04:43:50;;;;;;;4.30;2.13;;;16.50;99.90;;;;;;5040924;28;20791;-74
2022/07/22 04:46:18;;;;;;;6.20;1.85;;;16.80;99.90;;;;;;5046086;28;20500;-73
2022/07/22 04:48:45;;;;;;;5.80;1.85;;;16.90;99.90;;;;;;5047172;28;20049;-75
2022/07/22 04:51:12;;;;;;;4.03;1.50;;;17.00;99.90;;;;;;5047752;28;20060;-74
2022/07/22 04:53:39;;;;;;;11.68;2.10;;;17.20;99.90;;;;;;5045390;28;21266;-74
2022/07/22 04:56:07;;;;;;;7.85;1.65;;;17.50;99.90;;;;;;5046645;28;20123;-74
2022/07/22 04:58:33;;;;;;;6.80;1.63;;;17.50;99.90;;;;;;5046863;28;20049;-73
2022/07/22 05:01:00;;;;;;;4.90;1.90;;;17.60;99.90;;;;;;5047481;28;20052;-74
2022/07/22 05:03:29;;;;;;;7.43;1.58;;;17.60;99.90;;;;;;5045561;28;20102;-74
2022/07/22 05:05:55;;;;;;;8.55;1.98;;;17.60;99.90;;;;;;5045178;28;20041;-73
2022/07/22 05:08:22;;;;;;;4.35;2.15;;;17.60;99.90;;;;;;5043982;28;20413;-73
2022/07/22 05:10:49;;;;;;;5.85;1.73;;;17.60;99.90;;;;;;5046296;28;20045;-73
2022/07/22 05:13:16;;;;;;;6.78;1.83;;;17.70;99.90;;;;;;5043526;28;20041;-74
2022/07/22 05:15:43;;;;;;;2.80;1.50;;;17.70;99.90;;;;;;5044671;28;20052;-73
2022/07/22 05:18:10;;;;;;;11.30;1.98;;;17.70;99.90;;;;;;5044097;28;20432;-74
2022/07/22 05:20:38;;;;;;;4.43;1.40;;;17.80;99.90;;;;;;5043544;28;20075;-72
2022/07/22 05:23:05;;;;;;;3.90;1.52;;;17.90;99.90;;;;;;5044117;28;20044;-73
2022/07/22 05:25:32;;;;;;;5.95;1.50;;;18.00;99.90;;;;;;5050725;28;20409;-74
2022/07/22 05:27:59;;;;;;;5.15;1.90;;;18.10;99.90;;;;;;5045518;28;20100;-73
2022/07/22 05:30:26;;;;;;;4.38;1.60;;;18.10;99.90;;;;;;5040124;28;20103;-74
2022/07/22 05:32:53;;;;;;;4.35;1.30;;;18.00;99.90;;;;;;5047589;28;20114;-72
2022/07/22 05:35:21;;;;;;;3.58;1.45;;;17.90;99.90;;;;;;5061086;28;20555;-73
2022/07/22 05:37:49;;;;;;;8.70;1.83;;;17.90;99.90;;;;;;5041314;28;20127;-73
2022/07/22 05:40:16;;;;;;;5.93;1.80;;;17.80;99.90;;;;;;5048140;28;20052;-73
2022/07/22 05:42:43;;;;;;;4.38;1.65;;;18.00;99.90;;;;;;5044590;28;20497;-73
2022/07/22 05:45:10;;;;;;;9.82;2.63;;;18.00;99.90;;;;;;5040619;28;20053;-73
2022/07/22 05:47:37;;;;;;;7.82;2.13;;;17.90;99.90;;;;;;5040982;28;20052;-73
2022/07/22 05:50:05;;;;;;;5.78;1.60;;;17.80;99.90;;;;;;5045988;28;20417;-72
2022/07/22 05:52:32;;;;;;;5.25;1.95;;;17.90;99.90;;;;;;5036255;28;20505;-72
2022/07/22 05:55:02;;;;;;;8.77;1.92;;;17.80;99.90;;;;;;5029495;28;20037;-72
2022/07/22 05:57:28;;;;;;;7.10;1.67;;;17.70;99.90;;;;;;5045259;28;20049;-73
2022/07/22 05:59:55;;;;;;;6.28;1.88;;;17.60;99.90;;;;;;5046454;28;20060;-72
2022/07/22 06:02:22;;;;;;;6.00;1.95;;;17.50;99.90;;;;;;5041748;28;20520;-72
2022/07/22 06:04:49;;;;;;;5.07;1.77;;;17.60;99.90;;;;;;5041698;28;20053;-72
2022/07/22 06:07:17;;;;;;;8.88;2.67;;;17.70;99.90;;;;;;5039751;28;20053;-71
2022/07/22 06:09:44;;;;;;;6.20;1.60;;;17.80;99.90;;;;;;5046411;28;20085;-72
2022/07/22 06:12:12;;;;;;;4.85;1.52;;;17.80;99.90;;;;;;5045422;28;20476;-72
2022/07/22 06:14:39;;;;;;;4.45;1.95;;;17.70;99.90;;;;;;5038615;28;20053;-71
2022/07/22 06:17:06;;;;;;;8.48;1.80;;;17.60;99.90;;;;;;5045116;28;20404;-71
2022/07/22 06:19:33;;;;;;;4.97;1.80;;;17.60;99.90;;;;;;5043352;28;20049;-71
2022/07/22 06:22:00;;;;;;;4.55;1.38;;;17.80;99.90;;;;;;5043782;28;20052;-72
2022/07/22 06:24:26;;;;;;;5.30;1.73;;;17.80;99.90;;;;;;5042903;28;20405;-71
2022/07/22 06:26:53;;;;;;;6.22;1.85;;;17.70;99.90;;;;;;5047774;28;20048;-72
2022/07/22 06:29:22;;;;;;;5.47;1.50;;;17.70;99.90;;;;;;5044956;28;20057;-72
2022/07/22 06:31:49;;;;;;;6.15;1.33;;;17.70;99.90;;;;;;5048055;28;20098;-71
2022/07/22 06:34:16;;;;;;;7.55;1.60;;;17.60;99.90;;;;;;5044211;28;20048;-72
2022/07/22 06:36:43;;;;;;;4.00;1.25;;;17.80;99.90;;;;;;5045477;28;20055;-71
2022/07/22 06:39:09;;;;;;;7.82;2.05;;;17.80;99.90;;;;;;5050562;28;20404;-72
2022/07/22 06:41:36;;;;;;;7.45;1.70;;;17.70;99.90;;;;;;5047359;28;20045;-71
2022/07/22 06:44:03;;;;;;;5.13;1.55;;;17.70;99.90;;;;;;5049123;28;20107;-72
2022/07/22 06:46:32;;;;;;;8.32;2.03;;;17.80;99.90;;;;;;5042420;28;20049;-72
2022/07/22 06:48:59;;;;;;;7.97;2.17;;;17.80;99.90;;;;;;5033546;28;20125;-72
2022/07/22 06:51:25;;;;;;;10.50;2.03;;;17.80;99.90;;;;;;5043838;28;20056;-72
2022/07/22 06:53:52;;;;;;;6.30;1.90;;;17.90;99.90;;;;;;5053008;28;20037;-72
2022/07/22 06:56:19;;;;;;;5.60;2.05;;;17.90;99.90;;;;;;5054279;28;20057;-72
2022/07/22 06:58:46;;;;;;;9.50;2.22;;;17.90;99.90;;;;;;5053911;28;20056;-73
2022/07/22 07:01:13;;;;;;;7.22;1.92;;;18.00;99.90;;;;;;5053625;28;20064;-72
2022/07/22 07:03:41;;;;;;;16.05;2.75;;;18.00;99.90;;;;;;5054546;28;20044;-72
2022/07/22 07:06:10;;;;;;;5.10;1.77;;;18.10;99.90;;;;;;5053812;28;20114;-72
2022/07/22 07:08:57;;;;;;;7.00;1.88;;;18.20;99.90;;;;;;5048113;28;20509;-72
2022/07/22 07:11:25;;;;;;;5.82;1.80;;;18.20;99.90;;;;;;5054904;28;20159;-72
2022/07/22 07:13:52;;;;;;;6.15;1.85;;;18.20;99.90;;;;;;5053140;28;20497;-73
2022/07/22 07:16:19;;;;;;;4.63;1.38;;;18.30;99.90;;;;;;5053360;28;20061;-72
2022/07/22 07:18:47;;;;;;;9.65;1.80;;;18.40;99.90;;;;;;5053404;28;20053;-73
2022/07/22 07:21:14;;;;;;;9.82;2.00;;;18.50;99.90;;;;;;5052994;28;20566;-72
2022/07/22 07:23:41;;;;;;;6.35;2.10;;;18.60;99.90;;;;;;5053962;28;20048;-73
2022/07/22 07:26:08;;;;;;;6.10;1.65;;;18.50;99.90;;;;;;5053072;28;20103;-73
2022/07/22 07:28:35;;;;;;;3.35;1.50;;;18.60;99.90;;;;;;5052337;28;20574;-72
2022/07/22 07:31:02;;;;;;;4.30;1.58;;;18.60;99.90;;;;;;5054214;28;20127;-73
2022/07/22 07:33:29;;;;;;;9.40;2.00;;;18.70;99.90;;;;;;5053115;28;20477;-72
2022/07/22 07:35:57;;;;;;;4.30;1.60;;;18.70;99.90;;;;;;5054279;28;20408;-73
2022/07/22 07:38:24;;;;;;;10.27;1.80;;;18.80;99.90;;;;;;5052526;28;20049;-73
2022/07/22 07:40:51;;;;;;;8.77;1.88;;;18.90;99.90;;;;;;5053229;28;20052;-72
2022/07/22 07:43:20;;;;;;;7.07;1.88;;;18.90;99.90;;;;;;5055557;28;20056;-73
2022/07/22 07:45:47;;;;;;;4.72;1.30;;;19.00;99.90;;;;;;5057162;28;20041;-74
2022/07/22 07:48:14;;;;;;;7.25;1.73;;;19.10;99.90;;;;;;5052949;28;20087;-73
2022/07/22 07:50:41;;;;;;;6.15;1.60;;;19.10;99.90;;;;;;5051666;28;20057;-73
2022/07/22 07:53:09;;;;;;;3.95;1.40;;;19.00;99.90;;;;;;5053163;28;20045;-73
2022/07/22 07:55:38;;;;;;;5.18;1.60;;;19.10;99.90;;;;;;5052740;28;20049;-73
2022/07/22 07:58:04;;;;;;;3.17;1.23;;;19.20;99.90;;;;;;5053732;28;20128;-72
2022/07/22 08:00:33;;;;;;;5.65;1.10;;;19.10;99.90;;;;;;5053074;28;20045;-73
2022/07/22 08:03:00;;;;;;;4.05;1.50;;;19.10;99.90;;;;;;5051715;28;20037;-72
2022/07/22 08:05:28;;;;;;;5.30;1.30;;;19.20;99.90;;;;;;5052307;28;20053;-72
2022/07/22 08:07:55;;;;;;;7.18;1.50;;;19.40;99.90;;;;;;5021093;28;20513;-72
2022/07/22 08:10:23;;;;;;;2.28;0.95;;;19.50;99.90;;;;;;5030116;28;20064;-73
2022/07/22 08:12:53;;;;;;;5.20;1.30;;;19.60;99.90;;;;;;5053269;28;20053;-72
2022/07/22 08:15:19;;;;;;;4.75;1.20;;;19.60;99.90;;;;;;5054199;28;20084;-73
2022/07/22 08:17:47;;;;;;;6.97;1.30;;;19.60;99.90;;;;;;5051884;28;20056;-73
2022/07/22 08:20:14;;;;;;;3.92;1.35;;;19.60;99.90;;;;;;5052880;28;20501;-72
2022/07/22 08:22:41;;;;;;;6.20;1.33;;;19.60;99.90;;;;;;5052504;28;20049;-73
2022/07/22 08:25:08;;;;;;;3.55;1.33;;;19.60;99.90;;;;;;5049343;28;20107;-73
2022/07/22 08:27:36;;;;;;;8.20;1.98;;;19.60;99.90;;;;;;5060043;28;20048;-72
2022/07/22 08:30:05;;;;;;;3.65;1.33;;;19.70;99.90;;;;;;5051011;28;20134;-71
2022/07/22 08:32:32;;;;;;;4.70;1.55;;;19.90;99.90;;;;;;5052670;28;20114;-72
2022/07/22 08:34:59;;;;;;;4.15;1.05;;;19.90;99.90;;;;;;5051252;28;20045;-72
2022/07/22 08:37:26;;;;;;;4.82;1.25;;;20.00;99.90;;;;;;5069125;28;20060;-72
2022/07/22 08:39:53;;;;;;;4.45;1.45;;;20.10;99.90;;;;;;5052965;28;20106;-72
2022/07/22 08:42:21;;;;;;;4.07;1.38;;;20.00;99.90;;;;;;5053251;28;20053;-72
2022/07/22 08:44:50;;;;;;;5.90;1.70;;;19.90;99.90;;;;;;5052927;28;20098;-72
2022/07/22 08:47:21;;;;;;;4.88;1.33;;;19.80;99.90;;;;;;5051390;28;20057;-72
2022/07/22 08:49:49;;;;;;;7.72;1.50;;;19.70;99.90;;;;;;5051413;28;20053;-72
2022/07/22 08:52:16;;;;;;;5.63;1.70;;;19.60;99.90;;;;;;5051749;28;20060;-71
2022/07/22 08:54:42;;;;;;;7.22;1.50;;;19.60;99.90;;;;;;5050895;28;20480;-72
2022/07/22 08:57:09;;;;;;;3.47;1.20;;;19.70;99.90;;;;;;5053639;28;20052;-72
2022/07/22 08:59:51;;;;;;;5.38;1.60;;;19.80;99.90;;;;;;5052007;28;20053;-72
2022/07/22 09:02:18;;;;;;;5.43;1.25;;;19.90;99.90;;;;;;5051684;28;20080;-72
2022/07/22 09:04:54;;;;;;;10.48;2.10;;;20.00;99.90;;;;;;5052681;28;20481;-72
2022/07/22 09:07:26;;;;;;;6.25;1.58;;;20.20;99.90;;;;;;5051213;28;20412;-71
2022/07/22 09:09:53;;;;;;;8.18;1.95;;;20.20;99.90;;;;;;5051406;28;20049;-73
2022/07/22 09:12:20;;;;;;;2.67;1.35;;;20.20;99.90;;;;;;5051395;28;20069;-73
2022/07/22 09:14:51;;;;;;;5.32;1.25;;;20.30;99.90;;;;;;5051209;28;20065;-72
2022/07/22 09:17:26;;;;;;;12.57;1.90;;;20.40;99.90;;;;;;5052554;28;20060;-72
2022/07/22 09:19:53;;;;;;;6.25;1.30;;;20.50;99.90;;;;;;5051747;28;20138;-71
2022/07/22 09:22:34;;;;;;;2.63;1.05;;;20.50;99.90;;;;;;5051307;28;20049;-72
2022/07/22 09:25:18;;;;;;;4.75;1.13;;;20.70;99.90;;;;;;5051884;28;20049;-72
2022/07/22 09:27:46;;;;;;;3.22;1.30;;;20.70;99.90;;;;;;5053866;28;20051;-74
2022/07/22 09:30:16;;;;;;;4.30;1.40;;;20.80;99.90;;;;;;5061292;28;20410;-72
2022/07/22 09:32:44;;;;;;;3.10;0.90;;;20.90;99.90;;;;;;5064792;28;20056;-73
2022/07/22 09:35:12;;;;;;;3.80;0.85;;;20.80;99.90;;;;;;5072371;28;20397;-72
2022/07/22 09:37:47;;;;;;;4.95;1.25;;;20.80;99.90;;;;;;5068455;28;20049;-73
2022/07/22 09:40:15;;;;;;;6.55;1.25;;;20.90;99.90;;;;;;5052986;28;20405;-73
2022/07/22 09:42:48;;;;;;;3.65;1.23;;;21.00;99.90;;;;;;5051412;28;20408;-73
2022/07/22 09:45:17;;;;;;;3.03;1.23;;;21.00;99.90;;;;;;5064107;28;20045;-73
2022/07/22 09:47:45;;;;;;;5.63;1.10;;;21.10;99.90;;;;;;5072778;28;20079;-73
2022/07/22 09:50:17;;;;;;;3.38;0.95;;;21.10;99.90;;;;;;5071483;28;20106;-73
2022/07/22 09:52:44;;;;;;;5.53;1.00;;;21.30;99.90;;;;;;5071177;28;20059;-73
2022/07/22 09:55:11;;;;;;;3.38;1.23;;;21.50;99.90;;;;;;5059153;28;20458;-71
2022/07/22 09:57:38;;;;;;;4.97;1.02;;;21.70;99.90;;;;;;5051132;28;20055;-72
2022/07/22 10:00:08;;;;;;;4.72;0.95;;;22.00;99.90;;;;;;5068022;28;20105;-73
2022/07/22 10:02:40;;;;;;;5.05;1.10;;;22.20;99.90;;;;;;5056568;28;20140;-73
2022/07/22 10:05:09;;;;;;;3.15;0.70;;;22.40;99.40;;;;;;5045923;28;20045;-73
2022/07/22 10:07:37;;;;;;;3.35;0.85;;;22.50;98.90;;;;;;5045067;28;20049;-73
2022/07/22 10:10:05;;;;;;;4.50;0.80;;;22.60;98.90;;;;;;5054414;28;20053;-72
2022/07/22 10:12:33;;;;;;;5.88;1.13;;;22.60;98.50;;;;;;5054139;28;20049;-73
2022/07/22 10:15:00;;;;;;;2.10;0.90;;;22.50;98.00;;;;;;5054873;28;20206;-73
2022/07/22 10:17:28;;;;;;;2.03;0.80;;;22.60;97.60;;;;;;5055895;28;20111;-73
2022/07/22 10:19:57;;;;;;;3.65;1.17;;;22.70;97.30;;;;;;5055264;28;20056;-72
2022/07/22 10:22:50;;;;;;;3.65;1.13;;;22.90;97.10;;;;;;5054543;28;20080;-72
2022/07/22 10:25:19;;;;;;;2.53;0.90;;;22.80;95.40;;;;;;5054399;28;20103;-73
2022/07/22 10:27:47;;;;;;;3.88;1.00;;;22.70;96.50;;;;;;5053838;28;20044;-73
2022/07/22 10:30:15;;;;;;;1.85;0.80;;;22.50;96.50;;;;;;5070484;28;20110;-73
2022/07/22 10:32:43;;;;;;;1.67;0.70;;;22.30;96.50;;;;;;5055022;28;20049;-73
2022/07/22 10:35:27;;;;;;;3.60;0.90;;;22.00;97.10;;;;;;5053182;28;20049;-72
2022/07/22 10:37:57;;;;;;;2.72;0.93;;;22.00;96.30;;;;;;5055045;28;20140;-72
2022/07/22 10:40:25;;;;;;;;;;;22.00;97.10;;;;;;5053187;28;20053;-72
2022/07/22 10:43:14;;;;;;;4.93;0.90;;;22.10;97.50;;;;;;5053610;28;20274;-72
2022/07/22 10:45:45;;;;;;;3.13;0.75;;;22.20;97.30;;;;;;5055273;28;20107;-72
2022/07/22 10:48:14;;;;;;;3.80;0.80;;;22.20;97.80;;;;;;5067676;28;20052;-72
2022/07/22 10:50:45;;;;;;;2.22;0.63;;;22.30;97.70;;;;;;5054956;28;20064;-72
2022/07/22 10:53:13;;;;;;;3.53;0.95;;;22.40;97.70;;;;;;5054659;28;20451;-72
2022/07/22 10:56:00;;;;;;;2.95;1.02;;;22.40;97.60;;;;;;5053441;28;20044;-72
2022/07/22 10:58:44;;;;;;;3.20;1.00;;;22.50;96.90;;;;;;5053803;28;20527;-72
2022/07/22 11:01:13;;;;;;;3.85;0.95;;;22.50;97.60;;;;;;5054090;28;20062;-72
2022/07/22 11:03:42;;;;;;;3.45;0.77;;;22.60;97.90;;;;;;5054995;28;20045;-72
2022/07/22 11:06:23;;;;;;;5.55;1.00;;;22.60;97.90;;;;;;5054826;28;20459;-74
2022/07/22 11:08:53;;;;;;;3.00;0.70;;;22.60;97.50;;;;;;5053687;28;20134;-73
2022/07/22 11:11:32;;;;;;;3.15;0.82;;;22.60;97.80;;;;;;5055304;28;20048;-73
2022/07/22 11:14:00;;;;;;;3.85;0.88;;;22.70;97.80;;;;;;5053357;28;20125;-74
2022/07/22 11:16:28;;;;;;;3.42;1.10;;;22.70;97.80;;;;;;5052364;28;20045;-74
2022/07/22 11:18:56;;;;;;;2.20;0.80;;;22.90;97.60;;;;;;5053694;28;20052;-71
2022/07/22 11:21:26;;;;;;;4.95;1.13;;;23.00;97.50;;;;;;5051999;28;20115;-72
2022/07/22 11:23:55;;;;;;;3.97;0.90;;;22.90;97.30;;;;;;5052529;28;20504;-72
2022/07/22 11:26:26;;;;;;;1.40;0.60;;;23.20;97.30;;;;;;5052657;28;20068;-71
2022/07/22 11:28:53;;;;;;;4.55;0.95;;;23.40;96.60;;;;;;5053710;28;20390;-71
2022/07/22 11:31:20;;;;;;;2.03;0.70;;;23.60;96.50;;;;;;5053381;28;20412;-72
2022/07/22 11:33:47;;;;;;;3.58;0.85;;;23.80;96.00;;;;;;5054116;28;20106;-73
2022/07/22 11:36:14;;;;;;;2.50;0.57;;;24.10;95.70;;;;;;5053032;28;20147;-72
2022/07/22 11:38:48;;;;;;;1.23;0.60;;;24.10;95.30;;;;;;5053400;28;20045;-73
2022/07/22 11:41:17;;;;;;;1.08;0.50;;;24.20;93.90;;;;;;5053101;28;20452;-73
2022/07/22 11:43:45;;;;;;;1.33;0.65;;;23.80;94.40;;;;;;5053786;28;20049;-73
2022/07/22 11:46:13;;;;;;;1.70;0.57;;;23.80;94.40;;;;;;5053453;28;20452;-73
2022/07/22 11:48:41;;;;;;;2.95;0.75;;;23.90;94.50;;;;;;5053115;28;20044;-73
2022/07/22 11:51:10;;;;;;;2.30;0.68;;;23.90;94.30;;;;;;5052900;28;20059;-72
2022/07/22 11:53:38;;;;;;;4.23;0.70;;;23.80;94.10;;;;;;5052866;28;20071;-72
2022/07/22 11:56:09;;;;;;;1.48;0.50;;;23.70;94.10;;;;;;5052820;28;20048;-72
2022/07/22 11:58:41;;;;;;;2.63;0.60;;;23.30;93.50;;;;;;5053299;28;20048;-72
2022/07/22 12:01:10;;;;;;;2.45;0.95;;;23.50;93.70;;;;;;5052426;28;20116;-73
2022/07/22 12:03:38;;;;;;;1.33;0.50;;;23.40;94.20;;;;;;5052806;28;20449;-72
2022/07/22 12:06:08;;;;;;;3.70;1.00;;;23.60;94.30;;;;;;5052436;28;20041;-73
2022/07/22 12:08:40;;;;;;;1.95;0.77;;;23.60;94.00;;;;;;5036192;28;20061;-72
2022/07/22 12:11:09;;;;;;;3.47;0.70;;;23.50;93.90;;;;;;5033259;28;20049;-72
2022/07/22 12:13:36;;;;;;;4.78;0.90;;;23.30;93.90;;;;;;5033381;28;20119;-72
2022/07/22 12:16:18;;;;;;;2.40;0.60;;;23.30;94.10;;;;;;5038157;28;20103;-71
2022/07/22 12:18:51;;;;;;;2.20;0.70;;;23.60;93.50;;;;;;5051785;28;20044;-72
2022/07/22 12:21:17;;;;;;;3.55;0.60;;;23.80;93.90;;;;;;5053363;28;20497;-72
2022/07/22 12:23:51;;;;;;;2.40;0.70;;;23.60;93.40;;;;;;5052912;28;20052;-72
2022/07/22 12:26:20;;;;;;;3.80;0.70;;;23.80;93.10;;;;;;5051113;28;20053;-72
2022/07/22 12:28:47;;;;;;;1.90;0.73;;;23.60;92.60;;;;;;5051899;28;20060;-72
2022/07/22 12:31:14;;;;;;;2.20;0.73;;;23.40;92.80;;;;;;5052723;28;20417;-73
2022/07/22 12:33:49;;;;;;;2.42;0.60;;;23.50;92.90;;;;;;5052506;28;20049;-71
2022/07/22 12:36:16;;;;;;;2.80;0.60;;;23.50;92.60;;;;;;5050557;28;20059;-74
2022/07/22 12:38:42;;;;;;;3.78;0.80;;;23.50;92.40;;;;;;5051859;28;20053;-72
2022/07/22 12:41:25;;;;;;;2.20;0.50;;;23.20;92.30;;;;;;5050470;28;20053;-72
2022/07/22 12:43:52;;;;;;;1.10;0.73;;;23.10;92.40;;;;;;5051049;28;20180;-72
2022/07/22 12:46:20;;;;;;;2.72;0.75;;;23.10;92.60;;;;;;5052236;28;20124;-72
2022/07/22 12:48:52;;;;;;;1.83;0.60;;;23.00;92.40;;;;;;5051582;28;20493;-72
2022/07/22 12:51:19;;;;;;;3.20;0.90;;;23.10;92.00;;;;;;5051116;28;20049;-72